Metaline, Washington
Current Conditions -  °F | °C
As of 1:15 PM on Sunday 23 Nov 2014 (Local Time) from K65S Reporting Station
Heavy Snow Heavy Snow  
Wind Chill: 32°   Ceiling: NA
Heat Index: 32°   Visibility: NA
Dew Point: 32°   Wind: 0mph
Humidity: 100%   Direction: NA
Pressure: 29.94"   Gusts: NA
Location:  48.85°N, 117.39°W
Report Text: K65S 232115Z AUTO 00000KT +SN 00/00 A2994 RMK AO2 P0002
Loading
Personal Weather Stations






























Interactive Weather Map New forecast layout! Learn more

10-Day Weather Forecast

Advertisements
Track Severe Weather on mobile